createdAt,value
2022-09-28T00:00:27.959Z,28.27
2022-09-28T00:03:18.704Z,28.31
2022-09-28T00:06:10.974Z,28.54
2022-09-28T00:09:03.214Z,28.62
2022-09-28T00:11:55.017Z,28.68
2022-09-28T00:14:46.034Z,28.89
2022-09-28T00:17:37.807Z,28.99
2022-09-28T00:20:31.230Z,29.14
2022-09-28T00:23:21.771Z,29.28
2022-09-28T00:26:11.968Z,29.36
2022-09-28T00:29:03.791Z,29.44
2022-09-28T00:32:03.704Z,29.53
2022-09-28T00:34:54.745Z,29.60
2022-09-28T00:37:44.899Z,29.70
2022-09-28T00:40:35.274Z,29.79
2022-09-28T00:43:26.886Z,29.88
2022-09-28T00:46:24.308Z,29.90
2022-09-28T00:49:18.745Z,29.92
2022-09-28T00:52:12.555Z,29.97
2022-09-28T00:55:04.099Z,29.99
2022-09-28T00:57:59.610Z,29.97
2022-09-28T01:00:50.968Z,29.96
2022-09-28T01:03:46.689Z,29.97
2022-09-28T01:06:38.608Z,30.02
2022-09-28T01:09:30.305Z,29.92
2022-09-28T01:12:20.922Z,29.96
2022-09-28T01:15:13.100Z,29.97
2022-09-28T01:18:15.709Z,30.01
2022-09-28T01:21:19.186Z,29.99
2022-09-28T01:24:14.761Z,29.99
2022-09-28T01:27:14.925Z,29.98
2022-09-28T01:30:20.522Z,29.92
2022-09-28T01:33:15.306Z,29.92
2022-09-28T01:36:13.580Z,30.04
2022-09-28T01:39:12.163Z,30.14
2022-09-28T01:42:08.147Z,30.17
2022-09-28T01:45:02.991Z,30.26
2022-09-28T01:47:54.543Z,30.26
2022-09-28T01:50:49.382Z,30.36
2022-09-28T01:53:46.723Z,30.42
2022-09-28T01:56:52.469Z,30.46
2022-09-28T01:59:48.838Z,30.49
2022-09-28T02:02:52.531Z,30.38
2022-09-28T02:06:02.258Z,30.52
2022-09-28T02:08:56.724Z,30.66
2022-09-28T02:12:02.441Z,30.69
2022-09-28T02:14:57.458Z,30.78
2022-09-28T02:17:48.365Z,30.82
2022-09-28T02:20:43.552Z,30.88
2022-09-28T02:23:37.644Z,30.93
2022-09-28T02:26:33.991Z,30.96
2022-09-28T02:29:25.050Z,31.02
2022-09-28T02:32:18.129Z,31.11
2022-09-28T02:35:19.318Z,31.13
2022-09-28T02:38:12.900Z,31.17
2022-09-28T02:41:24.356Z,31.25
2022-09-28T02:44:36.551Z,31.23
2022-09-28T02:47:30.044Z,31.29
2022-09-28T02:50:50.524Z,31.40
2022-09-28T02:54:18.551Z,31.55
2022-09-28T02:57:29.189Z,31.46
2022-09-28T03:00:24.661Z,31.43
2022-09-28T03:03:41.185Z,31.47
2022-09-28T03:06:38.982Z,31.48
2022-09-28T03:09:41.194Z,31.56
2022-09-28T03:12:32.853Z,31.64
2022-09-28T03:15:29.818Z,31.65
2022-09-28T03:18:20.645Z,31.64
2022-09-28T03:21:15.281Z,31.79
2022-09-28T03:24:07.916Z,31.80
2022-09-28T03:26:58.439Z,31.88
2022-09-28T03:29:49.326Z,31.94
2022-09-28T03:32:40.056Z,31.94
2022-09-28T03:35:30.764Z,32.06
2022-09-28T03:38:22.452Z,32.11
2022-09-28T03:41:15.795Z,32.03
2022-09-28T03:44:06.472Z,32.16
2022-09-28T03:46:56.570Z,32.20
2022-09-28T03:49:47.599Z,32.16
2022-09-28T03:52:37.729Z,32.25
2022-09-28T03:55:33.017Z,32.36
2022-09-28T03:58:26.233Z,32.49
2022-09-28T04:01:20.659Z,32.61
2022-09-28T04:04:15.901Z,32.74
2022-09-28T04:07:06.427Z,32.80
2022-09-28T04:09:57.155Z,32.80
2022-09-28T04:12:48.228Z,32.81
2022-09-28T04:15:40.004Z,32.93
2022-09-28T04:18:40.746Z,32.97
2022-09-28T04:21:50.088Z,33.01
2022-09-28T04:24:41.627Z,33.02
2022-09-28T04:27:50.523Z,33.10
2022-09-28T04:30:50.429Z,33.20
2022-09-28T04:33:40.716Z,33.27
2022-09-28T04:36:31.415Z,33.24
2022-09-28T04:39:25.534Z,33.25
2022-09-28T04:42:19.832Z,33.27
2022-09-28T04:45:13.358Z,33.33
2022-09-28T04:48:09.539Z,33.36
2022-09-28T04:51:25.303Z,33.45
2022-09-28T04:54:16.000Z,33.45
2022-09-28T04:57:07.560Z,33.47
2022-09-28T04:59:58.164Z,33.50
2022-09-28T05:02:49.066Z,33.52
2022-09-28T05:05:59.151Z,33.52
2022-09-28T05:09:08.815Z,33.50
2022-09-28T05:11:59.309Z,33.52
2022-09-28T05:14:51.858Z,33.52
2022-09-28T05:17:42.204Z,33.55
2022-09-28T05:20:45.205Z,33.59
2022-09-28T05:23:35.180Z,33.63
2022-09-28T05:26:26.775Z,33.65
2022-09-28T05:29:17.883Z,33.71
2022-09-28T05:32:08.754Z,33.71
2022-09-28T05:35:07.823Z,33.74
2022-09-28T05:38:07.220Z,33.79
2022-09-28T05:41:03.145Z,33.84
2022-09-28T05:43:56.467Z,33.90
2022-09-28T05:46:46.370Z,33.95
2022-09-28T05:49:37.622Z,33.98
2022-09-28T05:52:30.803Z,34.04
2022-09-28T05:55:22.930Z,34.11
2022-09-28T05:58:12.687Z,34.14
2022-09-28T06:01:03.006Z,34.23
2022-09-28T06:03:54.055Z,34.25
2022-09-28T06:06:45.275Z,34.30
2022-09-28T06:09:35.798Z,34.29
2022-09-28T06:12:38.084Z,34.33
2022-09-28T06:15:38.565Z,34.29
2022-09-28T06:18:28.622Z,34.38
2022-09-28T06:21:43.942Z,34.37
2022-09-28T06:24:34.439Z,34.38
2022-09-28T06:27:26.802Z,34.30
2022-09-28T06:30:17.878Z,34.21
2022-09-28T06:33:09.877Z,34.09
2022-09-28T06:36:02.277Z,33.97
2022-09-28T06:38:52.688Z,33.84
2022-09-28T06:41:43.816Z,33.75
2022-09-28T06:44:37.284Z,33.66
2022-09-28T06:47:45.535Z,33.60
2022-09-28T06:50:53.574Z,33.51
2022-09-28T06:53:50.987Z,33.50
2022-09-28T06:56:55.968Z,33.44
2022-09-28T06:59:46.907Z,33.39
2022-09-28T07:02:38.162Z,33.38
2022-09-28T07:05:49.952Z,33.32
2022-09-28T07:09:25.295Z,33.24
2022-09-28T07:12:37.538Z,33.20
2022-09-28T07:15:45.033Z,33.17
2022-09-28T07:18:40.558Z,33.15
2022-09-28T07:21:33.033Z,33.09
2022-09-28T07:24:25.204Z,33.08
2022-09-28T07:27:44.230Z,33.06
2022-09-28T07:30:39.581Z,33.02
2022-09-28T07:33:40.425Z,32.99
2022-09-28T07:36:58.580Z,32.98
2022-09-28T07:40:07.521Z,32.97
2022-09-28T07:43:07.135Z,32.91
2022-09-28T07:45:58.157Z,32.83
2022-09-28T07:48:48.563Z,32.76
2022-09-28T07:51:57.870Z,32.71
2022-09-28T07:54:53.511Z,32.71
2022-09-28T07:58:06.632Z,32.63
2022-09-28T08:01:33.401Z,32.58
2022-09-28T08:04:25.221Z,32.57
2022-09-28T08:07:23.631Z,32.57
2022-09-28T08:10:24.112Z,32.53
2022-09-28T08:13:40.941Z,32.46
2022-09-28T08:16:57.579Z,32.44
2022-09-28T08:20:30.145Z,32.39
2022-09-28T08:23:24.571Z,32.37
2022-09-28T08:26:15.876Z,32.31
2022-09-28T08:29:08.385Z,32.32
2022-09-28T08:32:22.363Z,32.30
2022-09-28T08:35:40.191Z,32.27
2022-09-28T08:38:36.561Z,32.19
2022-09-28T08:41:51.252Z,32.19
2022-09-28T08:44:50.592Z,32.18
2022-09-28T08:48:26.079Z,32.13
2022-09-28T08:51:51.930Z,32.14
2022-09-28T08:54:58.302Z,32.10
2022-09-28T08:58:10.874Z,32.09
2022-09-28T09:01:02.816Z,32.09
2022-09-28T09:03:53.818Z,32.05
2022-09-28T09:07:09.073Z,32.05
2022-09-28T09:10:09.515Z,32.01
2022-09-28T09:13:23.218Z,32.04
2022-09-28T09:16:42.605Z,32.03
2022-09-28T09:20:01.781Z,31.88
2022-09-28T09:23:22.217Z,31.90
2022-09-28T09:26:23.697Z,31.83
2022-09-28T09:29:34.981Z,31.87
2022-09-28T09:32:56.377Z,31.81
2022-09-28T09:36:09.140Z,31.73
2022-09-28T09:39:53.029Z,31.75
2022-09-28T09:43:52.127Z,31.59
2022-09-28T09:47:09.431Z,31.64
2022-09-28T09:50:52.860Z,31.67
2022-09-28T09:53:49.704Z,31.65
2022-09-28T09:56:59.444Z,31.63
2022-09-28T10:00:21.948Z,31.56
2022-09-28T10:03:30.911Z,31.57
2022-09-28T10:06:37.825Z,31.50
2022-09-28T10:09:48.775Z,31.53
2022-09-28T10:12:55.333Z,31.47
2022-09-28T10:15:48.983Z,31.46
2022-09-28T10:18:47.043Z,31.41
2022-09-28T10:22:09.082Z,31.41
2022-09-28T10:25:01.850Z,31.39
2022-09-28T10:27:54.053Z,31.36
2022-09-28T10:30:46.267Z,31.32
2022-09-28T10:33:37.852Z,31.29
2022-09-28T10:36:31.482Z,31.19
2022-09-28T10:39:37.980Z,31.11
2022-09-28T10:42:33.355Z,31.02
2022-09-28T10:45:26.064Z,30.94
2022-09-28T10:48:24.927Z,30.87
2022-09-28T10:51:14.627Z,30.72
2022-09-28T10:54:07.828Z,30.64
2022-09-28T10:57:31.110Z,30.57
2022-09-28T11:00:52.431Z,30.41
2022-09-28T11:04:01.239Z,30.22
2022-09-28T11:06:52.411Z,30.14
2022-09-28T11:09:47.706Z,30.07
2022-09-28T11:12:49.480Z,29.97
2022-09-28T11:15:44.411Z,29.86
2022-09-28T11:18:44.742Z,29.82
2022-09-28T11:21:47.593Z,29.78
2022-09-28T11:24:38.830Z,29.66
2022-09-28T11:27:29.760Z,29.60
2022-09-28T11:30:34.982Z,29.52
2022-09-28T11:33:49.684Z,29.52
2022-09-28T11:37:28.588Z,29.43
2022-09-28T11:40:35.634Z,29.40
2022-09-28T11:43:52.186Z,29.31
2022-09-28T11:47:07.094Z,29.29
2022-09-28T11:50:20.050Z,29.32
2022-09-28T11:53:43.148Z,29.26
2022-09-28T11:56:41.440Z,29.28
2022-09-28T11:59:50.039Z,29.32
2022-09-28T12:03:06.642Z,29.35
2022-09-28T12:06:03.909Z,29.32
2022-09-28T12:09:02.577Z,29.32
2022-09-28T12:12:36.281Z,29.42
2022-09-28T12:15:59.213Z,29.38
2022-09-28T12:18:53.692Z,29.65
2022-09-28T12:21:52.742Z,29.80
2022-09-28T12:24:51.011Z,29.85
2022-09-28T12:28:14.234Z,29.94
2022-09-28T12:31:19.806Z,30.00
2022-09-28T12:34:16.794Z,30.02
2022-09-28T12:37:43.757Z,30.11
2022-09-28T12:40:42.304Z,30.10
2022-09-28T12:43:41.985Z,30.10
2022-09-28T12:46:49.145Z,30.13
2022-09-28T12:53:08.733Z,30.17
2022-09-28T12:56:30.979Z,30.20
2022-09-28T12:59:27.444Z,30.19
2022-09-28T13:02:42.998Z,30.19
2022-09-28T13:06:18.546Z,30.27
2022-09-28T13:09:29.375Z,30.29
2022-09-28T13:12:28.791Z,30.26
2022-09-28T13:15:38.606Z,30.24
2022-09-28T13:18:36.817Z,30.29
2022-09-28T13:21:40.557Z,30.24
2022-09-28T13:24:37.187Z,30.24
2022-09-28T13:27:46.776Z,30.25
2022-09-28T13:30:41.344Z,30.29
2022-09-28T13:33:40.147Z,30.27
2022-09-28T13:36:31.748Z,30.26
2022-09-28T13:39:47.814Z,30.32
2022-09-28T13:42:52.498Z,30.29
2022-09-28T13:45:55.160Z,30.30
2022-09-28T13:49:13.955Z,30.29
2022-09-28T13:53:05.549Z,30.29
2022-09-28T13:56:29.837Z,30.29
2022-09-28T13:59:31.581Z,30.22
2022-09-28T14:02:35.746Z,30.29
2022-09-28T14:05:28.800Z,30.28
2022-09-28T14:08:44.852Z,30.27
2022-09-28T14:11:40.814Z,30.23
2022-09-28T14:14:49.570Z,30.18
2022-09-28T14:18:25.238Z,30.17
2022-09-28T14:21:33.762Z,30.14
2022-09-28T14:24:46.432Z,30.09
2022-09-28T14:28:12.972Z,30.14
2022-09-28T14:31:16.891Z,30.12
2022-09-28T14:34:29.504Z,30.17
2022-09-28T14:37:59.012Z,30.17
2022-09-28T14:41:11.769Z,30.16
2022-09-28T14:44:06.762Z,30.10
2022-09-28T14:47:40.446Z,30.14
2022-09-28T14:50:31.461Z,30.07
2022-09-28T14:53:26.242Z,30.08
2022-09-28T14:56:16.611Z,30.08
2022-09-28T14:59:08.716Z,30.05
2022-09-28T15:02:07.854Z,30.06
2022-09-28T15:05:26.682Z,30.10
2022-09-28T15:08:24.186Z,30.04
2022-09-28T15:11:29.972Z,30.06
2022-09-28T15:14:20.471Z,30.01
2022-09-28T15:17:16.508Z,30.03
2022-09-28T15:20:26.052Z,30.00
2022-09-28T15:23:38.896Z,30.02
2022-09-28T15:26:35.007Z,29.98
2022-09-28T15:29:28.630Z,29.95
2022-09-28T15:32:29.446Z,29.94
2022-09-28T15:35:27.674Z,29.96
2022-09-28T15:38:19.019Z,29.96
2022-09-28T15:41:12.370Z,29.94
2022-09-28T15:44:21.607Z,29.98
2022-09-28T15:47:26.826Z,29.86
2022-09-28T15:50:47.214Z,29.95
2022-09-28T15:53:37.929Z,29.91
2022-09-28T15:56:28.768Z,29.91
2022-09-28T15:59:18.971Z,29.90
2022-09-28T16:02:27.487Z,29.92
2022-09-28T16:05:38.184Z,29.94
2022-09-28T16:08:49.915Z,29.92
2022-09-28T16:11:42.073Z,29.87
2022-09-28T16:14:35.882Z,29.88
2022-09-28T16:17:36.235Z,29.87
2022-09-28T16:20:30.800Z,29.85
2022-09-28T16:23:32.341Z,29.85
2022-09-28T16:26:37.149Z,29.87
2022-09-28T16:29:29.741Z,29.81
2022-09-28T16:32:29.304Z,29.83
2022-09-28T16:35:30.470Z,29.80
2022-09-28T16:38:21.441Z,29.81
2022-09-28T16:41:12.143Z,29.77
2022-09-28T16:44:03.732Z,29.62
2022-09-28T16:46:57.369Z,29.49
2022-09-28T16:49:49.352Z,29.45
2022-09-28T16:53:00.048Z,29.33
2022-09-28T16:55:54.965Z,29.28
2022-09-28T16:58:50.764Z,29.25
2022-09-28T17:01:44.950Z,29.18
2022-09-28T17:04:35.057Z,29.17
2022-09-28T17:07:25.797Z,29.17
2022-09-28T17:11:09.825Z,29.15
2022-09-28T17:14:00.266Z,29.18
2022-09-28T17:17:08.153Z,29.14
2022-09-28T17:20:01.221Z,29.14
2022-09-28T17:22:55.056Z,29.15
2022-09-28T17:25:46.878Z,29.15
2022-09-28T17:28:38.472Z,29.07
2022-09-28T17:31:32.331Z,29.09
2022-09-28T17:34:22.787Z,29.11
2022-09-28T17:37:16.723Z,29.06
2022-09-28T17:40:21.703Z,29.10
2022-09-28T17:43:11.962Z,29.09
2022-09-28T17:46:02.504Z,29.07
2022-09-28T17:48:55.551Z,29.00
2022-09-28T17:51:45.691Z,29.00
2022-09-28T17:54:36.135Z,29.05
2022-09-28T17:57:28.163Z,29.07
2022-09-28T18:00:19.112Z,29.06
2022-09-28T18:03:18.652Z,29.05
2022-09-28T18:06:16.099Z,29.03
2022-09-28T18:09:07.143Z,29.00
2022-09-28T18:12:08.832Z,29.03
2022-09-28T18:15:01.824Z,29.00
2022-09-28T18:17:53.073Z,28.99
2022-09-28T18:20:43.514Z,29.00
2022-09-28T18:23:38.254Z,28.94
2022-09-28T18:26:28.095Z,28.96
2022-09-28T18:29:33.489Z,28.96
2022-09-28T18:32:25.045Z,28.96
2022-09-28T18:35:15.902Z,28.98
2022-09-28T18:38:10.689Z,28.96
2022-09-28T18:41:11.827Z,28.98
2022-09-28T18:44:07.307Z,28.97
2022-09-28T18:47:01.547Z,28.95
2022-09-28T18:49:55.115Z,28.95
2022-09-28T18:52:46.625Z,28.92
2022-09-28T18:55:38.067Z,28.91
2022-09-28T18:58:31.732Z,28.93
2022-09-28T19:01:31.726Z,28.93
2022-09-28T19:04:24.606Z,28.93
2022-09-28T19:07:15.234Z,28.90
2022-09-28T19:10:06.846Z,28.90
2022-09-28T19:12:57.181Z,28.86
2022-09-28T19:15:47.382Z,28.90
2022-09-28T19:18:41.537Z,28.89
2022-09-28T19:21:32.093Z,28.90
2022-09-28T19:24:22.612Z,28.88
2022-09-28T19:27:15.852Z,28.87
2022-09-28T19:30:06.418Z,28.86
2022-09-28T19:32:57.764Z,28.86
2022-09-28T19:35:57.804Z,28.86
2022-09-28T19:38:48.470Z,28.81
2022-09-28T19:41:47.358Z,28.84
2022-09-28T19:44:38.678Z,28.83
2022-09-28T19:47:29.614Z,28.80
2022-09-28T19:50:19.868Z,28.83
2022-09-28T19:53:10.549Z,28.80
2022-09-28T19:56:09.886Z,28.82
2022-09-28T19:59:03.468Z,28.81
2022-09-28T20:01:57.550Z,28.77
2022-09-28T20:04:51.128Z,28.79
2022-09-28T20:07:42.623Z,28.79
2022-09-28T20:10:33.109Z,28.79
2022-09-28T20:13:24.067Z,28.71
2022-09-28T20:16:19.390Z,28.72
2022-09-28T20:19:13.238Z,28.77
2022-09-28T20:22:04.780Z,28.76
2022-09-28T20:24:55.698Z,28.76
2022-09-28T20:27:45.590Z,28.74
2022-09-28T20:30:39.823Z,28.73
2022-09-28T20:33:29.921Z,28.73
2022-09-28T20:36:22.931Z,28.71
2022-09-28T20:39:24.827Z,28.67
2022-09-28T20:42:17.093Z,28.67
2022-09-28T20:45:07.862Z,28.66
2022-09-28T20:47:58.133Z,28.65
2022-09-28T20:50:48.342Z,28.61
2022-09-28T20:53:40.187Z,28.61
2022-09-28T20:56:40.050Z,28.57
2022-09-28T20:59:32.658Z,28.58
2022-09-28T21:02:23.738Z,28.59
2022-09-28T21:06:12.269Z,28.64
2022-09-28T21:09:03.404Z,28.57
2022-09-28T21:11:54.245Z,28.58
2022-09-28T21:14:44.853Z,28.60
2022-09-28T21:17:35.453Z,28.58
2022-09-28T21:20:25.781Z,28.57
2022-09-28T21:23:18.259Z,28.59
2022-09-28T21:26:20.015Z,28.53
2022-09-28T21:29:14.499Z,28.57
2022-09-28T21:32:05.619Z,28.57
2022-09-28T21:34:59.680Z,28.57
2022-09-28T21:37:50.068Z,28.56
2022-09-28T21:40:40.561Z,28.61
2022-09-28T21:43:33.028Z,28.58
2022-09-28T21:46:23.589Z,28.56
2022-09-28T21:49:15.583Z,28.54
2022-09-28T21:52:05.606Z,28.54
2022-09-28T21:54:59.030Z,28.53
2022-09-28T21:57:51.996Z,28.50
2022-09-28T22:00:42.086Z,28.52
2022-09-28T22:03:33.534Z,28.52
2022-09-28T22:06:26.239Z,28.56
2022-09-28T22:09:16.959Z,28.55
2022-09-28T22:12:07.335Z,28.54
2022-09-28T22:14:58.355Z,28.58
2022-09-28T22:17:51.578Z,28.56
2022-09-28T22:20:43.220Z,28.53
2022-09-28T22:23:33.908Z,28.55
2022-09-28T22:26:29.083Z,28.57
2022-09-28T22:29:19.076Z,28.54
2022-09-28T22:32:11.714Z,28.51
2022-09-28T22:35:03.180Z,28.53
2022-09-28T22:37:53.654Z,28.53
2022-09-28T22:40:59.647Z,28.56
2022-09-28T22:43:51.568Z,28.51
2022-09-28T22:46:42.754Z,28.51
2022-09-28T22:49:33.185Z,28.53
2022-09-28T22:52:24.141Z,28.50
2022-09-28T22:55:15.316Z,28.52
2022-09-28T22:58:05.196Z,28.54
2022-09-28T23:00:58.396Z,28.51
2022-09-28T23:03:49.338Z,28.51
2022-09-28T23:06:42.630Z,28.52
2022-09-28T23:09:33.221Z,28.59
2022-09-28T23:12:23.665Z,28.59
2022-09-28T23:15:15.061Z,28.59
2022-09-28T23:18:05.328Z,28.58
2022-09-28T23:20:57.599Z,28.66
2022-09-28T23:23:49.230Z,28.69
2022-09-28T23:26:39.341Z,28.71
2022-09-28T23:29:30.117Z,28.68
2022-09-28T23:32:20.860Z,28.69
2022-09-28T23:35:11.479Z,28.71
2022-09-28T23:38:02.323Z,28.71
2022-09-28T23:40:52.606Z,28.76
2022-09-28T23:43:42.369Z,28.79
2022-09-28T23:46:33.152Z,28.79
2022-09-28T23:49:24.134Z,28.82
2022-09-28T23:52:15.053Z,28.79
2022-09-28T23:55:06.130Z,28.89
2022-09-28T23:57:57.966Z,28.90
